sensor_id;sensor_type;location;lat;lon;timestamp;temperature;humidity
10451;DHT22;5273;51.290;6.918;2023-03-02T00:01:55;2.50;66.80
10451;DHT22;5273;51.290;6.918;2023-03-02T00:04:27;2.50;67.00
10451;DHT22;5273;51.290;6.918;2023-03-02T00:06:58;2.50;67.00
10451;DHT22;5273;51.290;6.918;2023-03-02T00:09:27;2.50;67.00
10451;DHT22;5273;51.290;6.918;2023-03-02T00:26:41;2.50;67.00
10451;DHT22;5273;51.290;6.918;2023-03-02T00:31:36;2.50;67.50
10451;DHT22;5273;51.290;6.918;2023-03-02T00:36:31;2.40;67.50
10451;DHT22;5273;51.290;6.918;2023-03-02T00:43:54;2.30;68.20
10451;DHT22;5273;51.290;6.918;2023-03-02T00:46:23;2.30;68.40
10451;DHT22;5273;51.290;6.918;2023-03-02T01:01:08;2.10;69.40
10451;DHT22;5273;51.290;6.918;2023-03-02T01:03:36;2.20;69.60
10451;DHT22;5273;51.290;6.918;2023-03-02T01:06:04;2.20;69.50
10451;DHT22;5273;51.290;6.918;2023-03-02T01:15:59;2.10;70.00
10451;DHT22;5273;51.290;6.918;2023-03-02T01:18:28;2.10;70.00
10451;DHT22;5273;51.290;6.918;2023-03-02T01:21:01;2.00;70.20
10451;DHT22;5273;51.290;6.918;2023-03-02T01:35:14;1.90;71.00
10451;DHT22;5273;51.290;6.918;2023-03-02T01:45:58;1.90;71.50
10451;DHT22;5273;51.290;6.918;2023-03-02T01:48:28;1.80;71.50
10451;DHT22;5273;51.290;6.918;2023-03-02T01:50:59;1.80;71.50
10451;DHT22;5273;51.290;6.918;2023-03-02T01:53:28;1.80;71.60
10451;DHT22;5273;51.290;6.918;2023-03-02T01:55:58;1.80;71.70
10451;DHT22;5273;51.290;6.918;2023-03-02T01:58:26;1.80;71.70
10451;DHT22;5273;51.290;6.918;2023-03-02T02:00:55;1.80;72.00
10451;DHT22;5273;51.290;6.918;2023-03-02T02:03:26;1.70;72.10
10451;DHT22;5273;51.290;6.918;2023-03-02T02:06:07;1.70;72.30
10451;DHT22;5273;51.290;6.918;2023-03-02T02:08:36;1.70;72.70
10451;DHT22;5273;51.290;6.918;2023-03-02T02:11:04;1.70;73.00
10451;DHT22;5273;51.290;6.918;2023-03-02T02:20:54;1.50;73.90
10451;DHT22;5273;51.290;6.918;2023-03-02T02:23:27;1.50;74.20
10451;DHT22;5273;51.290;6.918;2023-03-02T02:26:12;1.40;74.60
10451;DHT22;5273;51.290;6.918;2023-03-02T02:28:46;1.30;75.00
10451;DHT22;5273;51.290;6.918;2023-03-02T02:31:17;1.30;75.30
10451;DHT22;5273;51.290;6.918;2023-03-02T02:33:48;1.30;75.50
10451;DHT22;5273;51.290;6.918;2023-03-02T02:36:20;1.20;75.60
10451;DHT22;5273;51.290;6.918;2023-03-02T02:38:50;1.20;76.00
10451;DHT22;5273;51.290;6.918;2023-03-02T02:41:23;1.30;76.10
10451;DHT22;5273;51.290;6.918;2023-03-02T02:51:16;1.20;77.00
10451;DHT22;5273;51.290;6.918;2023-03-02T02:53:48;1.10;77.20
10451;DHT22;5273;51.290;6.918;2023-03-02T02:56:16;1.10;77.60
10451;DHT22;5273;51.290;6.918;2023-03-02T02:58:49;1.10;78.00
10451;DHT22;5273;51.290;6.918;2023-03-02T03:01:19;1.10;78.30
10451;DHT22;5273;51.290;6.918;2023-03-02T03:03:51;1.00;78.60
10451;DHT22;5273;51.290;6.918;2023-03-02T03:06:22;1.00;78.40
10451;DHT22;5273;51.290;6.918;2023-03-02T03:08:57;1.00;78.40
10451;DHT22;5273;51.290;6.918;2023-03-02T03:11:26;1.00;78.50
10451;DHT22;5273;51.290;6.918;2023-03-02T03:14:02;1.00;78.70
10451;DHT22;5273;51.290;6.918;2023-03-02T03:16:31;1.40;79.20
10451;DHT22;5273;51.290;6.918;2023-03-02T03:19:03;1.00;78.80
10451;DHT22;5273;51.290;6.918;2023-03-02T03:31:24;0.90;79.10
10451;DHT22;5273;51.290;6.918;2023-03-02T03:48:36;0.80;79.00
10451;DHT22;5273;51.290;6.918;2023-03-02T03:51:03;0.90;79.20
10451;DHT22;5273;51.290;6.918;2023-03-02T04:03:20;0.80;78.70
10451;DHT22;5273;51.290;6.918;2023-03-02T04:05:49;0.70;78.40
10451;DHT22;5273;51.290;6.918;2023-03-02T04:23:01;0.80;77.90
10451;DHT22;5273;51.290;6.918;2023-03-02T04:25:29;0.80;78.10
10451;DHT22;5273;51.290;6.918;2023-03-02T04:30:24;0.80;78.10
10451;DHT22;5273;51.290;6.918;2023-03-02T04:35:19;0.80;78.40
10451;DHT22;5273;51.290;6.918;2023-03-02T04:40:15;0.70;78.80
10451;DHT22;5273;51.290;6.918;2023-03-02T04:42:43;0.70;78.80
10451;DHT22;5273;51.290;6.918;2023-03-02T04:45:11;0.60;78.80
10451;DHT22;5273;51.290;6.918;2023-03-02T04:47:39;0.70;78.50
10451;DHT22;5273;51.290;6.918;2023-03-02T04:50:07;0.70;78.30
10451;DHT22;5273;51.290;6.918;2023-03-02T04:57:30;0.80;78.40
10451;DHT22;5273;51.290;6.918;2023-03-02T05:14:41;0.80;77.30
10451;DHT22;5273;51.290;6.918;2023-03-02T05:31:51;0.80;77.10
10451;DHT22;5273;51.290;6.918;2023-03-02T05:41:40;0.90;77.20
10451;DHT22;5273;51.290;6.918;2023-03-02T05:44:07;0.80;77.10
10451;DHT22;5273;51.290;6.918;2023-03-02T05:49:05;0.80;77.20
10451;DHT22;5273;51.290;6.918;2023-03-02T06:06:16;0.70;78.00
10451;DHT22;5273;51.290;6.918;2023-03-02T06:11:11;0.60;78.40
10451;DHT22;5273;51.290;6.918;2023-03-02T06:23:28;0.60;79.30
10451;DHT22;5273;51.290;6.918;2023-03-02T06:28:24;0.60;79.70
10451;DHT22;5273;51.290;6.918;2023-03-02T06:33:18;0.70;79.40
10451;DHT22;5273;51.290;6.918;2023-03-02T06:35:46;0.80;78.90
10451;DHT22;5273;51.290;6.918;2023-03-02T06:40:41;1.10;77.90
10451;DHT22;5273;51.290;6.918;2023-03-02T06:48:03;2.60;72.50
10451;DHT22;5273;51.290;6.918;2023-03-02T06:57:53;4.90;62.30
10451;DHT22;5273;51.290;6.918;2023-03-02T07:00:22;5.40;60.30
10451;DHT22;5273;51.290;6.918;2023-03-02T07:02:53;5.80;58.60
10451;DHT22;5273;51.290;6.918;2023-03-02T07:15:11;8.30;50.20
10451;DHT22;5273;51.290;6.918;2023-03-02T07:17:40;8.70;49.60
10451;DHT22;5273;51.290;6.918;2023-03-02T07:20:09;9.50;48.30
10451;DHT22;5273;51.290;6.918;2023-03-02T07:32:26;13.70;38.70
10451;DHT22;5273;51.290;6.918;2023-03-02T07:39:47;14.90;33.70
10451;DHT22;5273;51.290;6.918;2023-03-02T07:42:15;14.90;32.50
10451;DHT22;5273;51.290;6.918;2023-03-02T07:49:38;16.10;31.20
10451;DHT22;5273;51.290;6.918;2023-03-02T08:01:54;17.60;27.90
10451;DHT22;5273;51.290;6.918;2023-03-02T08:06:49;18.30;27.30
10451;DHT22;5273;51.290;6.918;2023-03-02T08:24:03;17.40;26.50
10451;DHT22;5273;51.290;6.918;2023-03-02T08:28:57;17.30;26.50
10451;DHT22;5273;51.290;6.918;2023-03-02T08:38:46;17.20;26.40
10451;DHT22;5273;51.290;6.918;2023-03-02T08:41:16;17.40;26.40
10451;DHT22;5273;51.290;6.918;2023-03-02T08:46:12;17.70;26.10
10451;DHT22;5273;51.290;6.918;2023-03-02T08:51:08;17.70;26.00
10451;DHT22;5273;51.290;6.918;2023-03-02T08:53:38;17.90;26.00
10451;DHT22;5273;51.290;6.918;2023-03-02T08:56:16;18.70;25.70
10451;DHT22;5273;51.290;6.918;2023-03-02T09:01:14;19.50;24.80
10451;DHT22;5273;51.290;6.918;2023-03-02T09:13:31;21.10;22.80
10451;DHT22;5273;51.290;6.918;2023-03-02T09:23:22;21.50;23.60
10451;DHT22;5273;51.290;6.918;2023-03-02T09:30:49;21.80;22.00
10451;DHT22;5273;51.290;6.918;2023-03-02T09:38:11;23.40;21.40
10451;DHT22;5273;51.290;6.918;2023-03-02T09:40:50;23.80;20.80
10451;DHT22;5273;51.290;6.918;2023-03-02T09:43:29;24.50;20.50
10451;DHT22;5273;51.290;6.918;2023-03-02T09:46:17;24.30;20.70
10451;DHT22;5273;51.290;6.918;2023-03-02T09:48:55;24.30;20.00
10451;DHT22;5273;51.290;6.918;2023-03-02T09:51:30;23.90;20.10
10451;DHT22;5273;51.290;6.918;2023-03-02T09:54:09;23.70;20.80
10451;DHT22;5273;51.290;6.918;2023-03-02T09:56:42;24.10;20.20
10451;DHT22;5273;51.290;6.918;2023-03-02T09:59:18;24.40;20.10
10451;DHT22;5273;51.290;6.918;2023-03-02T10:01:51;24.80;19.80
10451;DHT22;5273;51.290;6.918;2023-03-02T10:04:23;25.20;19.50
10451;DHT22;5273;51.290;6.918;2023-03-02T10:06:55;25.60;19.40
10451;DHT22;5273;51.290;6.918;2023-03-02T10:11:58;26.10;18.20
10451;DHT22;5273;51.290;6.918;2023-03-02T10:14:31;26.10;18.60
10451;DHT22;5273;51.290;6.918;2023-03-02T10:17:13;25.30;18.80
10451;DHT22;5273;51.290;6.918;2023-03-02T10:19:48;25.20;18.90
10451;DHT22;5273;51.290;6.918;2023-03-02T10:22:22;25.10;18.60
10451;DHT22;5273;51.290;6.918;2023-03-02T10:24:55;25.30;18.90
10451;DHT22;5273;51.290;6.918;2023-03-02T10:27:27;25.50;18.40
10451;DHT22;5273;51.290;6.918;2023-03-02T10:30:00;25.90;18.70
10451;DHT22;5273;51.290;6.918;2023-03-02T10:32:35;26.60;18.00
10451;DHT22;5273;51.290;6.918;2023-03-02T10:35:13;26.90;17.20
10451;DHT22;5273;51.290;6.918;2023-03-02T10:40:12;25.90;17.60
10451;DHT22;5273;51.290;6.918;2023-03-02T10:45:21;24.90;19.40
10451;DHT22;5273;51.290;6.918;2023-03-02T10:48:00;24.50;19.00
10451;DHT22;5273;51.290;6.918;2023-03-02T10:57:59;21.30;20.80
10451;DHT22;5273;51.290;6.918;2023-03-02T11:00:28;20.60;21.40
10451;DHT22;5273;51.290;6.918;2023-03-02T11:02:57;19.60;21.50
10451;DHT22;5273;51.290;6.918;2023-03-02T11:05:30;18.90;22.60
10451;DHT22;5273;51.290;6.918;2023-03-02T11:07:59;18.60;23.20
10451;DHT22;5273;51.290;6.918;2023-03-02T11:10:28;17.90;23.50
10451;DHT22;5273;51.290;6.918;2023-03-02T11:12:57;17.30;23.70
10451;DHT22;5273;51.290;6.918;2023-03-02T11:15:27;16.50;24.80
10451;DHT22;5273;51.290;6.918;2023-03-02T11:18:00;16.20;25.60
10451;DHT22;5273;51.290;6.918;2023-03-02T11:20:34;16.00;25.80
10451;DHT22;5273;51.290;6.918;2023-03-02T11:23:17;15.90;26.30
10451;DHT22;5273;51.290;6.918;2023-03-02T11:25:51;15.90;26.60
10451;DHT22;5273;51.290;6.918;2023-03-02T11:31:17;16.00;25.80
10451;DHT22;5273;51.290;6.918;2023-03-02T11:33:57;15.80;25.40
10451;DHT22;5273;51.290;6.918;2023-03-02T11:36:37;15.50;25.70
10451;DHT22;5273;51.290;6.918;2023-03-02T11:39:12;15.20;26.40
10451;DHT22;5273;51.290;6.918;2023-03-02T11:41:40;15.00;26.50
10451;DHT22;5273;51.290;6.918;2023-03-02T11:44:13;14.50;26.50
10451;DHT22;5273;51.290;6.918;2023-03-02T11:46:43;14.30;27.40
10451;DHT22;5273;51.290;6.918;2023-03-02T11:49:14;14.20;27.40
10451;DHT22;5273;51.290;6.918;2023-03-02T11:51:52;14.00;27.70
10451;DHT22;5273;51.290;6.918;2023-03-02T11:54:30;13.80;27.30
10451;DHT22;5273;51.290;6.918;2023-03-02T11:59:27;13.60;28.30
10451;DHT22;5273;51.290;6.918;2023-03-02T12:01:55;13.50;28.00
10451;DHT22;5273;51.290;6.918;2023-03-02T12:04:29;13.40;27.40
10451;DHT22;5273;51.290;6.918;2023-03-02T12:07:00;13.40;27.90
10451;DHT22;5273;51.290;6.918;2023-03-02T12:09:35;13.30;27.50
10451;DHT22;5273;51.290;6.918;2023-03-02T12:12:35;13.20;28.40
10451;DHT22;5273;51.290;6.918;2023-03-02T12:15:25;13.20;27.70
10451;DHT22;5273;51.290;6.918;2023-03-02T12:20:25;13.40;28.10
10451;DHT22;5273;51.290;6.918;2023-03-02T12:23:04;13.40;27.60
10451;DHT22;5273;51.290;6.918;2023-03-02T12:25:41;13.30;27.70
10451;DHT22;5273;51.290;6.918;2023-03-02T12:28:29;13.20;28.00
10451;DHT22;5273;51.290;6.918;2023-03-02T12:31:02;13.20;27.90
10451;DHT22;5273;51.290;6.918;2023-03-02T12:33:36;13.30;27.60
10451;DHT22;5273;51.290;6.918;2023-03-02T12:36:12;13.40;28.00
10451;DHT22;5273;51.290;6.918;2023-03-02T12:38:45;13.30;27.90
10451;DHT22;5273;51.290;6.918;2023-03-02T12:41:28;13.20;28.20
10451;DHT22;5273;51.290;6.918;2023-03-02T12:44:06;13.20;28.50
10451;DHT22;5273;51.290;6.918;2023-03-02T12:46:44;13.20;28.80
10451;DHT22;5273;51.290;6.918;2023-03-02T12:49:31;13.30;28.60
10451;DHT22;5273;51.290;6.918;2023-03-02T12:52:00;13.30;29.20
10451;DHT22;5273;51.290;6.918;2023-03-02T12:54:31;13.30;28.70
10451;DHT22;5273;51.290;6.918;2023-03-02T12:57:04;13.30;29.00
10451;DHT22;5273;51.290;6.918;2023-03-02T13:02:18;13.10;29.40
10451;DHT22;5273;51.290;6.918;2023-03-02T13:04:52;13.20;29.30
10451;DHT22;5273;51.290;6.918;2023-03-02T13:07:23;13.10;29.40
10451;DHT22;5273;51.290;6.918;2023-03-02T13:09:53;13.00;28.80
10451;DHT22;5273;51.290;6.918;2023-03-02T13:14:52;12.70;29.20
10451;DHT22;5273;51.290;6.918;2023-03-02T13:17:22;10.50;27.90
10451;DHT22;5273;51.290;6.918;2023-03-02T13:22:19;12.80;29.10
10451;DHT22;5273;51.290;6.918;2023-03-02T13:24:50;12.80;28.90
10451;DHT22;5273;51.290;6.918;2023-03-02T13:27:20;12.80;29.40
10451;DHT22;5273;51.290;6.918;2023-03-02T13:29:48;12.70;29.00
10451;DHT22;5273;51.290;6.918;2023-03-02T13:32:18;12.70;28.80
10451;DHT22;5273;51.290;6.918;2023-03-02T13:34:48;12.60;29.00
10451;DHT22;5273;51.290;6.918;2023-03-02T13:37:20;12.60;29.00
10451;DHT22;5273;51.290;6.918;2023-03-02T13:39:57;12.60;29.20
10451;DHT22;5273;51.290;6.918;2023-03-02T13:42:32;12.60;29.20
10451;DHT22;5273;51.290;6.918;2023-03-02T13:50:18;12.70;29.10
10451;DHT22;5273;51.290;6.918;2023-03-02T13:55:13;12.70;28.50
10451;DHT22;5273;51.290;6.918;2023-03-02T13:57:43;12.60;28.80
10451;DHT22;5273;51.290;6.918;2023-03-02T14:00:13;12.60;29.00
10451;DHT22;5273;51.290;6.918;2023-03-02T14:02:41;12.60;29.20
10451;DHT22;5273;51.290;6.918;2023-03-02T14:05:15;12.60;29.20
10451;DHT22;5273;51.290;6.918;2023-03-02T14:10:12;12.60;28.80
10451;DHT22;5273;51.290;6.918;2023-03-02T14:12:42;12.60;29.10
10451;DHT22;5273;51.290;6.918;2023-03-02T14:15:14;12.70;29.00
10451;DHT22;5273;51.290;6.918;2023-03-02T14:17:46;12.70;28.80
10451;DHT22;5273;51.290;6.918;2023-03-02T14:20:18;12.60;28.70
10451;DHT22;5273;51.290;6.918;2023-03-02T14:22:48;12.60;28.60
10451;DHT22;5273;51.290;6.918;2023-03-02T14:25:19;12.60;29.40
10451;DHT22;5273;51.290;6.918;2023-03-02T14:27:53;12.80;29.20
10451;DHT22;5273;51.290;6.918;2023-03-02T14:30:27;12.80;29.60
10451;DHT22;5273;51.290;6.918;2023-03-02T14:33:07;12.90;29.20
10451;DHT22;5273;51.290;6.918;2023-03-02T14:35:44;13.00;29.20
10451;DHT22;5273;51.290;6.918;2023-03-02T14:38:20;13.00;29.00
10451;DHT22;5273;51.290;6.918;2023-03-02T14:40:55;13.00;28.70
10451;DHT22;5273;51.290;6.918;2023-03-02T14:43:35;13.00;29.20
10451;DHT22;5273;51.290;6.918;2023-03-02T14:48:37;12.90;28.70
10451;DHT22;5273;51.290;6.918;2023-03-02T14:51:22;12.70;28.80
10451;DHT22;5273;51.290;6.918;2023-03-02T14:54:03;12.60;28.80
10451;DHT22;5273;51.290;6.918;2023-03-02T14:59:29;12.50;29.50
10451;DHT22;5273;51.290;6.918;2023-03-02T15:02:27;12.40;29.30
10451;DHT22;5273;51.290;6.918;2023-03-02T15:07:40;12.40;30.50
10451;DHT22;5273;51.290;6.918;2023-03-02T15:10:20;12.40;30.90
10451;DHT22;5273;51.290;6.918;2023-03-02T15:12:59;12.50;31.40
10451;DHT22;5273;51.290;6.918;2023-03-02T15:15:43;12.50;31.60
10451;DHT22;5273;51.290;6.918;2023-03-02T15:18:21;12.50;31.70
10451;DHT22;5273;51.290;6.918;2023-03-02T15:20:55;12.40;32.00
10451;DHT22;5273;51.290;6.918;2023-03-02T15:23:26;12.40;31.90
10451;DHT22;5273;51.290;6.918;2023-03-02T15:25:59;12.30;32.10
10451;DHT22;5273;51.290;6.918;2023-03-02T15:28:29;12.20;31.80
10451;DHT22;5273;51.290;6.918;2023-03-02T15:31:20;12.30;32.60
10451;DHT22;5273;51.290;6.918;2023-03-02T15:33:57;12.20;32.50
10451;DHT22;5273;51.290;6.918;2023-03-02T15:41:53;12.20;32.70
10451;DHT22;5273;51.290;6.918;2023-03-02T15:44:28;12.10;32.80
10451;DHT22;5273;51.290;6.918;2023-03-02T15:47:00;12.00;32.70
10451;DHT22;5273;51.290;6.918;2023-03-02T15:52:15;11.90;33.10
10451;DHT22;5273;51.290;6.918;2023-03-02T15:54:46;12.00;33.60
10451;DHT22;5273;51.290;6.918;2023-03-02T15:57:21;12.00;33.20
10451;DHT22;5273;51.290;6.918;2023-03-02T16:00:00;11.80;32.90
10451;DHT22;5273;51.290;6.918;2023-03-02T16:02:29;11.80;33.00
10451;DHT22;5273;51.290;6.918;2023-03-02T16:05:04;11.70;33.30
10451;DHT22;5273;51.290;6.918;2023-03-02T16:07:35;11.60;33.60
10451;DHT22;5273;51.290;6.918;2023-03-02T16:10:11;11.50;34.10
10451;DHT22;5273;51.290;6.918;2023-03-02T16:13:05;11.40;34.40
10451;DHT22;5273;51.290;6.918;2023-03-02T16:15:43;11.50;34.80
10451;DHT22;5273;51.290;6.918;2023-03-02T16:18:17;11.40;35.00
10451;DHT22;5273;51.290;6.918;2023-03-02T16:21:02;11.30;35.00
10451;DHT22;5273;51.290;6.918;2023-03-02T16:23:54;11.30;35.60
10451;DHT22;5273;51.290;6.918;2023-03-02T16:26:37;11.30;36.00
10451;DHT22;5273;51.290;6.918;2023-03-02T16:29:13;11.10;36.40
10451;DHT22;5273;51.290;6.918;2023-03-02T16:31:56;11.10;37.00
10451;DHT22;5273;51.290;6.918;2023-03-02T16:34:32;11.00;37.70
10451;DHT22;5273;51.290;6.918;2023-03-02T16:37:12;10.90;38.20
10451;DHT22;5273;51.290;6.918;2023-03-02T16:39:50;10.90;38.70
10451;DHT22;5273;51.290;6.918;2023-03-02T16:45:05;10.90;40.50
10451;DHT22;5273;51.290;6.918;2023-03-02T16:47:37;10.80;41.10
10451;DHT22;5273;51.290;6.918;2023-03-02T16:50:18;10.80;41.90
10451;DHT22;5273;51.290;6.918;2023-03-02T16:52:47;10.60;42.60
10451;DHT22;5273;51.290;6.918;2023-03-02T16:55:19;10.50;43.30
10451;DHT22;5273;51.290;6.918;2023-03-02T17:00:29;10.30;44.60
10451;DHT22;5273;51.290;6.918;2023-03-02T17:05:34;10.10;45.60
10451;DHT22;5273;51.290;6.918;2023-03-02T17:08:14;10.00;46.10
10451;DHT22;5273;51.290;6.918;2023-03-02T17:10:44;9.90;47.50
10451;DHT22;5273;51.290;6.918;2023-03-02T17:18:40;9.70;48.70
10451;DHT22;5273;51.290;6.918;2023-03-02T17:21:27;9.70;49.00
10451;DHT22;5273;51.290;6.918;2023-03-02T17:24:00;9.70;49.30
10451;DHT22;5273;51.290;6.918;2023-03-02T17:26:33;9.50;49.80
10451;DHT22;5273;51.290;6.918;2023-03-02T17:29:11;9.50;50.20
10451;DHT22;5273;51.290;6.918;2023-03-02T17:31:46;9.40;50.50
10451;DHT22;5273;51.290;6.918;2023-03-02T17:36:58;9.20;51.40
10451;DHT22;5273;51.290;6.918;2023-03-02T17:42:08;9.00;52.30
10451;DHT22;5273;51.290;6.918;2023-03-02T17:44:44;8.80;52.80
10451;DHT22;5273;51.290;6.918;2023-03-02T17:47:27;8.70;53.30
10451;DHT22;5273;51.290;6.918;2023-03-02T17:50:07;8.60;53.90
10451;DHT22;5273;51.290;6.918;2023-03-02T17:52:54;8.50;54.40
10451;DHT22;5273;51.290;6.918;2023-03-02T17:55:27;8.40;54.80
10451;DHT22;5273;51.290;6.918;2023-03-02T17:58:06;8.30;55.30
10451;DHT22;5273;51.290;6.918;2023-03-02T18:00:46;8.30;55.70
10451;DHT22;5273;51.290;6.918;2023-03-02T18:05:54;8.10;56.50
10451;DHT22;5273;51.290;6.918;2023-03-02T18:08:27;8.10;57.00
10451;DHT22;5273;51.290;6.918;2023-03-02T18:11:06;8.00;57.50
10451;DHT22;5273;51.290;6.918;2023-03-02T18:16:12;7.80;58.40
10451;DHT22;5273;51.290;6.918;2023-03-02T18:18:47;7.90;59.00
10451;DHT22;5273;51.290;6.918;2023-03-02T18:21:24;7.80;59.30
10451;DHT22;5273;51.290;6.918;2023-03-02T18:24:03;7.70;60.00
10451;DHT22;5273;51.290;6.918;2023-03-02T18:31:46;7.50;61.90
10451;DHT22;5273;51.290;6.918;2023-03-02T18:34:21;9.50;64.70
10451;DHT22;5273;51.290;6.918;2023-03-02T18:37:08;7.40;63.00
10451;DHT22;5273;51.290;6.918;2023-03-02T18:39:53;7.40;63.60
10451;DHT22;5273;51.290;6.918;2023-03-02T18:42:32;7.40;64.40
10451;DHT22;5273;51.290;6.918;2023-03-02T18:45:23;7.40;64.70
10451;DHT22;5273;51.290;6.918;2023-03-02T18:48:02;7.30;65.70
10451;DHT22;5273;51.290;6.918;2023-03-02T18:50:48;7.20;67.00
10451;DHT22;5273;51.290;6.918;2023-03-02T18:53:29;7.20;67.80
10451;DHT22;5273;51.290;6.918;2023-03-02T18:56:09;7.20;68.20
10451;DHT22;5273;51.290;6.918;2023-03-02T18:58:49;7.10;68.80
10451;DHT22;5273;51.290;6.918;2023-03-02T19:04:31;7.00;70.50
10451;DHT22;5273;51.290;6.918;2023-03-02T19:07:06;6.90;71.40
10451;DHT22;5273;51.290;6.918;2023-03-02T19:09:40;6.80;72.40
10451;DHT22;5273;51.290;6.918;2023-03-02T19:12:33;6.70;73.50
10451;DHT22;5273;51.290;6.918;2023-03-02T19:18:02;6.40;76.20
10451;DHT22;5273;51.290;6.918;2023-03-02T19:21:21;6.40;77.10
10451;DHT22;5273;51.290;6.918;2023-03-02T19:24:15;6.30;77.80
10451;DHT22;5273;51.290;6.918;2023-03-02T19:27:22;6.30;78.50
10451;DHT22;5273;51.290;6.918;2023-03-02T19:36:56;6.10;80.90
10451;DHT22;5273;51.290;6.918;2023-03-02T19:39:45;6.10;81.90
10451;DHT22;5273;51.290;6.918;2023-03-02T19:42:35;5.90;82.70
10451;DHT22;5273;51.290;6.918;2023-03-02T19:49:40;5.80;84.80
10451;DHT22;5273;51.290;6.918;2023-03-02T19:52:30;5.70;85.10
10451;DHT22;5273;51.290;6.918;2023-03-02T19:55:25;5.70;86.00
10451;DHT22;5273;51.290;6.918;2023-03-02T19:58:10;5.60;86.80
10451;DHT22;5273;51.290;6.918;2023-03-02T20:05:37;5.60;88.30
10451;DHT22;5273;51.290;6.918;2023-03-02T20:10:33;5.40;90.00
10451;DHT22;5273;51.290;6.918;2023-03-02T20:15:29;5.30;90.50
10451;DHT22;5273;51.290;6.918;2023-03-02T20:17:57;5.20;90.80
10451;DHT22;5273;51.290;6.918;2023-03-02T20:22:55;5.10;91.40
10451;DHT22;5273;51.290;6.918;2023-03-02T20:30:22;5.00;92.20
10451;DHT22;5273;51.290;6.918;2023-03-02T20:32:49;4.90;92.40
10451;DHT22;5273;51.290;6.918;2023-03-02T20:40:13;3.60;92.80
10451;DHT22;5273;51.290;6.918;2023-03-02T20:45:10;4.70;93.90
10451;DHT22;5273;51.290;6.918;2023-03-02T20:50:06;4.70;94.60
10451;DHT22;5273;51.290;6.918;2023-03-02T20:57:30;4.40;95.30
10451;DHT22;5273;51.290;6.918;2023-03-02T21:14:41;3.90;98.10
10451;DHT22;5273;51.290;6.918;2023-03-02T21:31:55;3.60;99.50
10451;DHT22;5273;51.290;6.918;2023-03-02T21:36:49;3.50;99.90
10451;DHT22;5273;51.290;6.918;2023-03-02T21:39:19;3.50;99.90
10451;DHT22;5273;51.290;6.918;2023-03-02T21:44:15;3.50;99.90
10451;DHT22;5273;51.290;6.918;2023-03-02T21:49:13;3.40;99.90
10451;DHT22;5273;51.290;6.918;2023-03-02T21:59:03;3.40;99.90
10451;DHT22;5273;51.290;6.918;2023-03-02T22:06:28;3.30;99.90
10451;DHT22;5273;51.290;6.918;2023-03-02T22:11:25;3.20;99.90
10451;DHT22;5273;51.290;6.918;2023-03-02T22:13:54;3.00;99.90
10451;DHT22;5273;51.290;6.918;2023-03-02T22:16:23;3.00;99.90
10451;DHT22;5273;51.290;6.918;2023-03-02T22:18:54;2.90;99.90
10451;DHT22;5273;51.290;6.918;2023-03-02T22:21:29;2.90;99.90
10451;DHT22;5273;51.290;6.918;2023-03-02T22:24:04;3.00;99.90
10451;DHT22;5273;51.290;6.918;2023-03-02T22:26:39;3.00;99.90
10451;DHT22;5273;51.290;6.918;2023-03-02T22:29:12;2.90;99.90
10451;DHT22;5273;51.290;6.918;2023-03-02T22:31:43;2.90;99.90
10451;DHT22;5273;51.290;6.918;2023-03-02T22:34:12;2.90;99.90
10451;DHT22;5273;51.290;6.918;2023-03-02T22:36:41;2.80;99.90
10451;DHT22;5273;51.290;6.918;2023-03-02T22:39:14;2.80;99.90
10451;DHT22;5273;51.290;6.918;2023-03-02T22:44:11;2.60;99.90
10451;DHT22;5273;51.290;6.918;2023-03-02T22:49:12;2.40;99.90
10451;DHT22;5273;51.290;6.918;2023-03-02T22:51:42;2.30;99.90
10451;DHT22;5273;51.290;6.918;2023-03-02T22:54:18;2.30;99.90
10451;DHT22;5273;51.290;6.918;2023-03-02T22:56:48;2.20;99.90
10451;DHT22;5273;51.290;6.918;2023-03-02T22:59:19;2.20;99.90
10451;DHT22;5273;51.290;6.918;2023-03-02T23:01:47;2.20;99.90
10451;DHT22;5273;51.290;6.918;2023-03-02T23:04:18;2.20;99.90
10451;DHT22;5273;51.290;6.918;2023-03-02T23:06:48;2.20;99.90
10451;DHT22;5273;51.290;6.918;2023-03-02T23:09:17;2.10;99.90
10451;DHT22;5273;51.290;6.918;2023-03-02T23:14:21;2.00;99.90
10451;DHT22;5273;51.290;6.918;2023-03-02T23:16:52;2.00;99.90
10451;DHT22;5273;51.290;6.918;2023-03-02T23:21:48;1.90;99.90
10451;DHT22;5273;51.290;6.918;2023-03-02T23:39:06;1.70;99.90
10451;DHT22;5273;51.290;6.918;2023-03-02T23:46:28;-0.90;99.90
10451;DHT22;5273;51.290;6.918;2023-03-02T23:56:18;1.80;99.90
